sensor_id;sensor_type;location;lat;lon;timestamp;P1;durP1;ratioP1;P2;durP2;ratioP2
46757;SDS011;32509;47.750;-3.396;2023-04-09T00:00:38;3.58;;;3.28;;
46757;SDS011;32509;47.750;-3.396;2023-04-09T00:03:04;3.60;;;3.20;;
46757;SDS011;32509;47.750;-3.396;2023-04-09T00:05:30;5.45;;;4.65;;
46757;SDS011;32509;47.750;-3.396;2023-04-09T00:07:56;4.32;;;3.72;;
46757;SDS011;32509;47.750;-3.396;2023-04-09T00:10:22;5.13;;;3.63;;
46757;SDS011;32509;47.750;-3.396;2023-04-09T00:15:51;4.28;;;3.83;;
46757;SDS011;32509;47.750;-3.396;2023-04-09T00:18:18;5.03;;;3.58;;
46757;SDS011;32509;47.750;-3.396;2023-04-09T00:20:44;4.03;;;3.67;;
46757;SDS011;32509;47.750;-3.396;2023-04-09T00:23:10;3.47;;;3.17;;
46757;SDS011;32509;47.750;-3.396;2023-04-09T00:25:36;4.75;;;3.67;;
46757;SDS011;32509;47.750;-3.396;2023-04-09T00:28:02;3.20;;;2.95;;
46757;SDS011;32509;47.750;-3.396;2023-04-09T00:30:28;4.78;;;3.50;;
46757;SDS011;32509;47.750;-3.396;2023-04-09T00:32:55;4.20;;;3.60;;
46757;SDS011;32509;47.750;-3.396;2023-04-09T00:35:21;5.47;;;3.20;;
46757;SDS011;32509;47.750;-3.396;2023-04-09T00:37:47;3.40;;;3.13;;
46757;SDS011;32509;47.750;-3.396;2023-04-09T00:40:13;3.72;;;3.30;;
46757;SDS011;32509;47.750;-3.396;2023-04-09T00:42:39;10.13;;;4.38;;
46757;SDS011;32509;47.750;-3.396;2023-04-09T00:45:06;5.18;;;3.42;;
46757;SDS011;32509;47.750;-3.396;2023-04-09T00:47:33;5.20;;;3.58;;
46757;SDS011;32509;47.750;-3.396;2023-04-09T00:49:59;4.07;;;3.50;;
46757;SDS011;32509;47.750;-3.396;2023-04-09T00:52:26;4.90;;;3.20;;
46757;SDS011;32509;47.750;-3.396;2023-04-09T00:54:54;4.57;;;3.85;;
46757;SDS011;32509;47.750;-3.396;2023-04-09T00:57:21;4.80;;;3.25;;
46757;SDS011;32509;47.750;-3.396;2023-04-09T00:59:47;4.35;;;3.92;;
46757;SDS011;32509;47.750;-3.396;2023-04-09T01:02:13;4.53;;;3.47;;
46757;SDS011;32509;47.750;-3.396;2023-04-09T01:04:40;4.28;;;3.20;;
46757;SDS011;32509;47.750;-3.396;2023-04-09T01:07:11;6.25;;;3.72;;
46757;SDS011;32509;47.750;-3.396;2023-04-09T01:09:49;4.20;;;3.70;;
46757;SDS011;32509;47.750;-3.396;2023-04-09T01:14:49;4.45;;;3.80;;
46757;SDS011;32509;47.750;-3.396;2023-04-09T01:20:17;4.93;;;3.20;;
46757;SDS011;32509;47.750;-3.396;2023-04-09T01:23:00;3.33;;;3.03;;
46757;SDS011;32509;47.750;-3.396;2023-04-09T01:30:37;4.53;;;4.13;;
46757;SDS011;32509;47.750;-3.396;2023-04-09T01:33:03;8.93;;;3.47;;
46757;SDS011;32509;47.750;-3.396;2023-04-09T01:35:30;4.18;;;3.60;;
46757;SDS011;32509;47.750;-3.396;2023-04-09T01:37:56;4.05;;;3.15;;
46757;SDS011;32509;47.750;-3.396;2023-04-09T01:40:23;5.75;;;3.60;;
46757;SDS011;32509;47.750;-3.396;2023-04-09T01:42:49;4.32;;;3.33;;
46757;SDS011;32509;47.750;-3.396;2023-04-09T01:45:15;4.22;;;3.75;;
46757;SDS011;32509;47.750;-3.396;2023-04-09T01:47:41;5.00;;;3.55;;
46757;SDS011;32509;47.750;-3.396;2023-04-09T01:50:08;5.22;;;4.25;;
46757;SDS011;32509;47.750;-3.396;2023-04-09T01:52:34;3.50;;;2.88;;
46757;SDS011;32509;47.750;-3.396;2023-04-09T01:55:00;4.47;;;4.07;;
46757;SDS011;32509;47.750;-3.396;2023-04-09T01:57:26;6.00;;;3.75;;
46757;SDS011;32509;47.750;-3.396;2023-04-09T01:59:53;3.85;;;3.55;;
46757;SDS011;32509;47.750;-3.396;2023-04-09T02:02:22;4.57;;;3.90;;
46757;SDS011;32509;47.750;-3.396;2023-04-09T02:04:50;3.70;;;3.40;;
46757;SDS011;32509;47.750;-3.396;2023-04-09T02:07:21;3.75;;;3.45;;
46757;SDS011;32509;47.750;-3.396;2023-04-09T02:09:49;4.22;;;3.83;;
46757;SDS011;32509;47.750;-3.396;2023-04-09T02:12:18;6.38;;;3.95;;
46757;SDS011;32509;47.750;-3.396;2023-04-09T02:14:47;5.35;;;3.80;;
46757;SDS011;32509;47.750;-3.396;2023-04-09T02:17:15;5.10;;;4.55;;
46757;SDS011;32509;47.750;-3.396;2023-04-09T02:19:45;5.75;;;3.65;;
46757;SDS011;32509;47.750;-3.396;2023-04-09T02:22:12;5.03;;;4.28;;
46757;SDS011;32509;47.750;-3.396;2023-04-09T02:24:39;3.97;;;3.20;;
46757;SDS011;32509;47.750;-3.396;2023-04-09T02:27:05;4.50;;;4.00;;
46757;SDS011;32509;47.750;-3.396;2023-04-09T02:29:32;6.40;;;4.25;;
46757;SDS011;32509;47.750;-3.396;2023-04-09T02:31:58;4.85;;;4.22;;
46757;SDS011;32509;47.750;-3.396;2023-04-09T02:34:24;6.75;;;3.65;;
46757;SDS011;32509;47.750;-3.396;2023-04-09T02:36:50;4.65;;;4.15;;
46757;SDS011;32509;47.750;-3.396;2023-04-09T02:39:16;4.82;;;4.03;;
46757;SDS011;32509;47.750;-3.396;2023-04-09T02:41:43;5.38;;;4.30;;
46757;SDS011;32509;47.750;-3.396;2023-04-09T02:44:09;5.63;;;4.28;;
46757;SDS011;32509;47.750;-3.396;2023-04-09T02:46:35;4.60;;;4.13;;
46757;SDS011;32509;47.750;-3.396;2023-04-09T02:49:01;3.85;;;3.50;;
46757;SDS011;32509;47.750;-3.396;2023-04-09T02:51:27;4.50;;;3.92;;
46757;SDS011;32509;47.750;-3.396;2023-04-09T02:53:53;4.80;;;4.07;;
46757;SDS011;32509;47.750;-3.396;2023-04-09T02:56:19;3.80;;;3.45;;
46757;SDS011;32509;47.750;-3.396;2023-04-09T02:58:45;5.55;;;4.25;;
46757;SDS011;32509;47.750;-3.396;2023-04-09T03:01:13;4.65;;;4.25;;
46757;SDS011;32509;47.750;-3.396;2023-04-09T03:03:39;5.60;;;4.07;;
46757;SDS011;32509;47.750;-3.396;2023-04-09T03:06:06;4.72;;;4.30;;
46757;SDS011;32509;47.750;-3.396;2023-04-09T03:08:33;4.63;;;4.15;;
46757;SDS011;32509;47.750;-3.396;2023-04-09T03:10:59;4.13;;;3.72;;
46757;SDS011;32509;47.750;-3.396;2023-04-09T03:13:26;4.43;;;4.03;;
46757;SDS011;32509;47.750;-3.396;2023-04-09T03:15:52;4.75;;;4.32;;
46757;SDS011;32509;47.750;-3.396;2023-04-09T03:18:18;5.97;;;3.67;;
46757;SDS011;32509;47.750;-3.396;2023-04-09T03:20:45;5.35;;;4.45;;
46757;SDS011;32509;47.750;-3.396;2023-04-09T03:23:11;5.47;;;4.00;;
46757;SDS011;32509;47.750;-3.396;2023-04-09T03:25:37;5.50;;;3.97;;
46757;SDS011;32509;47.750;-3.396;2023-04-09T03:28:03;4.85;;;3.90;;
46757;SDS011;32509;47.750;-3.396;2023-04-09T03:30:29;4.28;;;3.88;;
46757;SDS011;32509;47.750;-3.396;2023-04-09T03:32:55;4.40;;;4.00;;
46757;SDS011;32509;47.750;-3.396;2023-04-09T03:35:23;4.55;;;4.18;;
46757;SDS011;32509;47.750;-3.396;2023-04-09T03:37:49;4.82;;;4.38;;
46757;SDS011;32509;47.750;-3.396;2023-04-09T03:40:15;4.18;;;3.83;;
46757;SDS011;32509;47.750;-3.396;2023-04-09T03:42:42;6.30;;;4.47;;
46757;SDS011;32509;47.750;-3.396;2023-04-09T03:45:08;6.78;;;4.50;;
46757;SDS011;32509;47.750;-3.396;2023-04-09T03:47:34;4.10;;;3.80;;
46757;SDS011;32509;47.750;-3.396;2023-04-09T03:50:00;4.28;;;3.90;;
46757;SDS011;32509;47.750;-3.396;2023-04-09T03:52:26;4.32;;;3.92;;
46757;SDS011;32509;47.750;-3.396;2023-04-09T03:54:52;4.45;;;4.05;;
46757;SDS011;32509;47.750;-3.396;2023-04-09T03:57:19;6.65;;;4.43;;
46757;SDS011;32509;47.750;-3.396;2023-04-09T03:59:45;4.35;;;3.95;;
46757;SDS011;32509;47.750;-3.396;2023-04-09T04:02:12;6.45;;;3.85;;
46757;SDS011;32509;47.750;-3.396;2023-04-09T04:04:38;4.90;;;3.53;;
46757;SDS011;32509;47.750;-3.396;2023-04-09T04:07:04;4.70;;;4.10;;
46757;SDS011;32509;47.750;-3.396;2023-04-09T04:09:31;4.68;;;4.25;;
46757;SDS011;32509;47.750;-3.396;2023-04-09T04:11:57;5.20;;;4.13;;
46757;SDS011;32509;47.750;-3.396;2023-04-09T04:14:26;5.35;;;4.60;;
46757;SDS011;32509;47.750;-3.396;2023-04-09T04:16:52;6.70;;;4.57;;
46757;SDS011;32509;47.750;-3.396;2023-04-09T04:19:18;6.43;;;3.70;;
46757;SDS011;32509;47.750;-3.396;2023-04-09T04:21:44;4.35;;;3.95;;
46757;SDS011;32509;47.750;-3.396;2023-04-09T04:24:10;4.50;;;4.10;;
46757;SDS011;32509;47.750;-3.396;2023-04-09T04:26:36;5.53;;;4.32;;
46757;SDS011;32509;47.750;-3.396;2023-04-09T04:29:02;4.47;;;4.07;;
46757;SDS011;32509;47.750;-3.396;2023-04-09T04:31:28;4.30;;;3.90;;
46757;SDS011;32509;47.750;-3.396;2023-04-09T04:33:54;4.32;;;3.75;;
46757;SDS011;32509;47.750;-3.396;2023-04-09T04:36:20;5.72;;;4.72;;
46757;SDS011;32509;47.750;-3.396;2023-04-09T04:38:46;4.88;;;4.43;;
46757;SDS011;32509;47.750;-3.396;2023-04-09T04:41:12;4.40;;;3.95;;
46757;SDS011;32509;47.750;-3.396;2023-04-09T04:43:39;4.53;;;3.92;;
46757;SDS011;32509;47.750;-3.396;2023-04-09T04:46:05;5.10;;;4.00;;
46757;SDS011;32509;47.750;-3.396;2023-04-09T04:48:31;4.80;;;4.00;;
46757;SDS011;32509;47.750;-3.396;2023-04-09T04:50:58;6.05;;;3.97;;
46757;SDS011;32509;47.750;-3.396;2023-04-09T04:53:24;4.72;;;3.70;;
46757;SDS011;32509;47.750;-3.396;2023-04-09T04:55:51;4.03;;;3.63;;
46757;SDS011;32509;47.750;-3.396;2023-04-09T04:58:17;4.72;;;3.90;;
46757;SDS011;32509;47.750;-3.396;2023-04-09T05:00:43;4.68;;;4.15;;
46757;SDS011;32509;47.750;-3.396;2023-04-09T05:03:10;6.75;;;4.88;;
46757;SDS011;32509;47.750;-3.396;2023-04-09T05:05:36;4.18;;;3.88;;
46757;SDS011;32509;47.750;-3.396;2023-04-09T05:08:02;4.18;;;3.88;;
46757;SDS011;32509;47.750;-3.396;2023-04-09T05:10:28;4.05;;;3.75;;
46757;SDS011;32509;47.750;-3.396;2023-04-09T05:12:54;3.70;;;3.40;;
46757;SDS011;32509;47.750;-3.396;2023-04-09T05:15:20;4.18;;;3.88;;
46757;SDS011;32509;47.750;-3.396;2023-04-09T05:17:46;4.05;;;3.72;;
46757;SDS011;32509;47.750;-3.396;2023-04-09T05:20:13;5.65;;;4.78;;
46757;SDS011;32509;47.750;-3.396;2023-04-09T05:22:39;4.07;;;3.67;;
46757;SDS011;32509;47.750;-3.396;2023-04-09T05:25:06;5.35;;;4.80;;
46757;SDS011;32509;47.750;-3.396;2023-04-09T05:27:32;4.05;;;3.67;;
46757;SDS011;32509;47.750;-3.396;2023-04-09T05:29:58;5.25;;;4.05;;
46757;SDS011;32509;47.750;-3.396;2023-04-09T05:32:24;4.80;;;4.32;;
46757;SDS011;32509;47.750;-3.396;2023-04-09T05:34:50;4.18;;;3.53;;
46757;SDS011;32509;47.750;-3.396;2023-04-09T05:37:16;4.32;;;3.90;;
46757;SDS011;32509;47.750;-3.396;2023-04-09T05:39:42;5.15;;;4.65;;
46757;SDS011;32509;47.750;-3.396;2023-04-09T05:42:08;5.78;;;4.60;;
46757;SDS011;32509;47.750;-3.396;2023-04-09T05:44:34;5.13;;;4.63;;
46757;SDS011;32509;47.750;-3.396;2023-04-09T05:47:01;5.97;;;4.55;;
46757;SDS011;32509;47.750;-3.396;2023-04-09T05:49:27;4.70;;;4.13;;
46757;SDS011;32509;47.750;-3.396;2023-04-09T05:51:53;4.82;;;4.43;;
46757;SDS011;32509;47.750;-3.396;2023-04-09T05:54:19;5.07;;;4.13;;
46757;SDS011;32509;47.750;-3.396;2023-04-09T05:56:45;4.82;;;4.43;;
46757;SDS011;32509;47.750;-3.396;2023-04-09T05:59:12;5.18;;;4.30;;
46757;SDS011;32509;47.750;-3.396;2023-04-09T06:01:38;7.88;;;4.65;;
46757;SDS011;32509;47.750;-3.396;2023-04-09T06:04:05;6.15;;;5.35;;
46757;SDS011;32509;47.750;-3.396;2023-04-09T06:06:31;5.30;;;4.82;;
46757;SDS011;32509;47.750;-3.396;2023-04-09T06:08:57;6.03;;;4.65;;
46757;SDS011;32509;47.750;-3.396;2023-04-09T06:11:23;5.28;;;4.70;;
46757;SDS011;32509;47.750;-3.396;2023-04-09T06:13:50;4.93;;;4.43;;
46757;SDS011;32509;47.750;-3.396;2023-04-09T06:16:16;6.65;;;5.15;;
46757;SDS011;32509;47.750;-3.396;2023-04-09T06:18:42;5.53;;;4.97;;
46757;SDS011;32509;47.750;-3.396;2023-04-09T06:21:10;5.18;;;4.72;;
46757;SDS011;32509;47.750;-3.396;2023-04-09T06:23:37;6.30;;;4.72;;
46757;SDS011;32509;47.750;-3.396;2023-04-09T06:26:03;5.30;;;4.82;;
46757;SDS011;32509;47.750;-3.396;2023-04-09T06:28:30;5.13;;;4.72;;
46757;SDS011;32509;47.750;-3.396;2023-04-09T06:30:57;5.05;;;4.63;;
46757;SDS011;32509;47.750;-3.396;2023-04-09T06:33:23;5.32;;;3.95;;
46757;SDS011;32509;47.750;-3.396;2023-04-09T06:35:50;6.50;;;4.85;;
46757;SDS011;32509;47.750;-3.396;2023-04-09T06:38:16;5.50;;;5.07;;
46757;SDS011;32509;47.750;-3.396;2023-04-09T06:40:42;5.43;;;4.45;;
46757;SDS011;32509;47.750;-3.396;2023-04-09T06:43:08;5.78;;;4.80;;
46757;SDS011;32509;47.750;-3.396;2023-04-09T06:45:35;5.35;;;4.63;;
46757;SDS011;32509;47.750;-3.396;2023-04-09T06:48:01;5.20;;;4.60;;
46757;SDS011;32509;47.750;-3.396;2023-04-09T06:50:27;6.88;;;4.95;;
46757;SDS011;32509;47.750;-3.396;2023-04-09T06:52:54;5.38;;;4.70;;
46757;SDS011;32509;47.750;-3.396;2023-04-09T06:55:20;5.50;;;5.00;;
46757;SDS011;32509;47.750;-3.396;2023-04-09T06:57:46;5.50;;;4.97;;
46757;SDS011;32509;47.750;-3.396;2023-04-09T07:00:12;5.90;;;4.97;;
46757;SDS011;32509;47.750;-3.396;2023-04-09T07:02:38;5.65;;;4.93;;
46757;SDS011;32509;47.750;-3.396;2023-04-09T07:05:04;4.53;;;4.20;;
46757;SDS011;32509;47.750;-3.396;2023-04-09T07:07:31;4.60;;;4.20;;
46757;SDS011;32509;47.750;-3.396;2023-04-09T07:09:57;6.65;;;4.80;;
46757;SDS011;32509;47.750;-3.396;2023-04-09T07:12:29;5.22;;;4.78;;
46757;SDS011;32509;47.750;-3.396;2023-04-09T07:14:59;6.80;;;4.80;;
46757;SDS011;32509;47.750;-3.396;2023-04-09T07:17:26;10.68;;;4.85;;
46757;SDS011;32509;47.750;-3.396;2023-04-09T07:19:52;6.07;;;5.55;;
46757;SDS011;32509;47.750;-3.396;2023-04-09T07:22:20;4.55;;;4.15;;
46757;SDS011;32509;47.750;-3.396;2023-04-09T07:24:49;4.72;;;4.28;;
46757;SDS011;32509;47.750;-3.396;2023-04-09T07:27:19;4.82;;;4.43;;
46757;SDS011;32509;47.750;-3.396;2023-04-09T07:29:45;6.50;;;4.78;;
46757;SDS011;32509;47.750;-3.396;2023-04-09T07:32:11;4.53;;;3.90;;
46757;SDS011;32509;47.750;-3.396;2023-04-09T07:34:37;5.30;;;4.78;;
46757;SDS011;32509;47.750;-3.396;2023-04-09T07:37:04;4.97;;;4.38;;
46757;SDS011;32509;47.750;-3.396;2023-04-09T07:39:30;5.22;;;4.72;;
46757;SDS011;32509;47.750;-3.396;2023-04-09T07:41:56;4.80;;;4.40;;
46757;SDS011;32509;47.750;-3.396;2023-04-09T07:44:24;5.00;;;4.55;;
46757;SDS011;32509;47.750;-3.396;2023-04-09T07:46:50;5.25;;;4.75;;
46757;SDS011;32509;47.750;-3.396;2023-04-09T07:49:16;5.82;;;4.70;;
46757;SDS011;32509;47.750;-3.396;2023-04-09T07:51:42;5.55;;;4.50;;
46757;SDS011;32509;47.750;-3.396;2023-04-09T07:54:08;4.38;;;3.97;;
46757;SDS011;32509;47.750;-3.396;2023-04-09T07:56:34;4.85;;;4.40;;
46757;SDS011;32509;47.750;-3.396;2023-04-09T07:59:00;4.80;;;4.30;;
46757;SDS011;32509;47.750;-3.396;2023-04-09T08:01:27;5.43;;;4.65;;
46757;SDS011;32509;47.750;-3.396;2023-04-09T08:03:53;5.07;;;4.68;;
46757;SDS011;32509;47.750;-3.396;2023-04-09T08:06:19;4.30;;;3.95;;
46757;SDS011;32509;47.750;-3.396;2023-04-09T08:08:45;5.60;;;3.72;;
46757;SDS011;32509;47.750;-3.396;2023-04-09T08:11:11;5.50;;;4.32;;
46757;SDS011;32509;47.750;-3.396;2023-04-09T08:13:37;4.22;;;3.85;;
46757;SDS011;32509;47.750;-3.396;2023-04-09T08:16:04;5.90;;;5.07;;
46757;SDS011;32509;47.750;-3.396;2023-04-09T08:18:30;4.85;;;4.55;;
46757;SDS011;32509;47.750;-3.396;2023-04-09T08:20:56;5.70;;;4.35;;
46757;SDS011;32509;47.750;-3.396;2023-04-09T08:23:22;5.13;;;4.07;;
46757;SDS011;32509;47.750;-3.396;2023-04-09T08:25:49;4.95;;;4.35;;
46757;SDS011;32509;47.750;-3.396;2023-04-09T08:28:15;4.32;;;3.92;;
46757;SDS011;32509;47.750;-3.396;2023-04-09T08:30:41;4.45;;;3.95;;
46757;SDS011;32509;47.750;-3.396;2023-04-09T08:33:08;8.25;;;4.43;;
46757;SDS011;32509;47.750;-3.396;2023-04-09T08:35:34;4.18;;;3.78;;
46757;SDS011;32509;47.750;-3.396;2023-04-09T08:38:02;6.53;;;4.25;;
46757;SDS011;32509;47.750;-3.396;2023-04-09T08:40:28;6.78;;;4.50;;
46757;SDS011;32509;47.750;-3.396;2023-04-09T08:42:58;4.80;;;3.50;;
46757;SDS011;32509;47.750;-3.396;2023-04-09T08:45:25;6.10;;;3.72;;
46757;SDS011;32509;47.750;-3.396;2023-04-09T08:47:51;4.55;;;3.78;;
46757;SDS011;32509;47.750;-3.396;2023-04-09T08:50:18;3.70;;;3.35;;
46757;SDS011;32509;47.750;-3.396;2023-04-09T08:52:44;3.35;;;3.15;;
46757;SDS011;32509;47.750;-3.396;2023-04-09T08:55:12;3.85;;;3.45;;
46757;SDS011;32509;47.750;-3.396;2023-04-09T08:57:38;5.45;;;4.05;;
46757;SDS011;32509;47.750;-3.396;2023-04-09T09:00:04;3.75;;;3.03;;
46757;SDS011;32509;47.750;-3.396;2023-04-09T09:02:31;5.88;;;3.10;;
46757;SDS011;32509;47.750;-3.396;2023-04-09T09:04:57;4.60;;;2.65;;
46757;SDS011;32509;47.750;-3.396;2023-04-09T09:07:26;4.57;;;2.85;;
46757;SDS011;32509;47.750;-3.396;2023-04-09T09:09:59;3.10;;;2.67;;
46757;SDS011;32509;47.750;-3.396;2023-04-09T09:12:37;3.63;;;3.33;;
46757;SDS011;32509;47.750;-3.396;2023-04-09T09:15:04;2.67;;;2.47;;
46757;SDS011;32509;47.750;-3.396;2023-04-09T09:17:31;4.82;;;2.85;;
46757;SDS011;32509;47.750;-3.396;2023-04-09T09:19:57;2.95;;;2.65;;
46757;SDS011;32509;47.750;-3.396;2023-04-09T09:22:24;4.95;;;3.05;;
46757;SDS011;32509;47.750;-3.396;2023-04-09T09:24:50;3.50;;;2.70;;
46757;SDS011;32509;47.750;-3.396;2023-04-09T09:27:35;4.38;;;3.20;;
46757;SDS011;32509;47.750;-3.396;2023-04-09T09:30:03;4.70;;;3.35;;
46757;SDS011;32509;47.750;-3.396;2023-04-09T09:32:33;6.20;;;2.78;;
46757;SDS011;32509;47.750;-3.396;2023-04-09T09:35:03;5.75;;;3.25;;
46757;SDS011;32509;47.750;-3.396;2023-04-09T09:37:30;3.95;;;3.03;;
46757;SDS011;32509;47.750;-3.396;2023-04-09T09:39:57;5.38;;;3.22;;
46757;SDS011;32509;47.750;-3.396;2023-04-09T09:42:23;3.97;;;3.17;;
46757;SDS011;32509;47.750;-3.396;2023-04-09T09:44:52;8.25;;;3.42;;
46757;SDS011;32509;47.750;-3.396;2023-04-09T09:47:19;4.32;;;2.88;;
46757;SDS011;32509;47.750;-3.396;2023-04-09T09:49:48;3.75;;;3.22;;
46757;SDS011;32509;47.750;-3.396;2023-04-09T09:52:15;6.30;;;3.15;;
46757;SDS011;32509;47.750;-3.396;2023-04-09T09:54:42;6.95;;;3.10;;
46757;SDS011;32509;47.750;-3.396;2023-04-09T09:57:11;4.97;;;3.08;;
46757;SDS011;32509;47.750;-3.396;2023-04-09T09:59:54;4.00;;;3.53;;
46757;SDS011;32509;47.750;-3.396;2023-04-09T10:02:22;4.75;;;2.78;;
46757;SDS011;32509;47.750;-3.396;2023-04-09T10:04:50;4.53;;;3.00;;
46757;SDS011;32509;47.750;-3.396;2023-04-09T10:07:17;3.80;;;2.83;;
46757;SDS011;32509;47.750;-3.396;2023-04-09T10:09:44;3.53;;;2.78;;
46757;SDS011;32509;47.750;-3.396;2023-04-09T10:12:13;3.17;;;2.88;;
46757;SDS011;32509;47.750;-3.396;2023-04-09T10:14:39;2.70;;;2.47;;
46757;SDS011;32509;47.750;-3.396;2023-04-09T10:17:06;2.70;;;2.50;;
46757;SDS011;32509;47.750;-3.396;2023-04-09T10:19:34;5.28;;;2.80;;
46757;SDS011;32509;47.750;-3.396;2023-04-09T10:22:06;3.83;;;2.85;;
46757;SDS011;32509;47.750;-3.396;2023-04-09T10:24:34;3.90;;;2.88;;
46757;SDS011;32509;47.750;-3.396;2023-04-09T10:27:14;4.90;;;3.15;;
46757;SDS011;32509;47.750;-3.396;2023-04-09T10:29:46;2.83;;;2.55;;
46757;SDS011;32509;47.750;-3.396;2023-04-09T10:32:17;3.30;;;2.53;;
46757;SDS011;32509;47.750;-3.396;2023-04-09T10:34:45;4.53;;;2.80;;
46757;SDS011;32509;47.750;-3.396;2023-04-09T10:37:15;2.67;;;2.47;;
46757;SDS011;32509;47.750;-3.396;2023-04-09T10:39:45;3.17;;;2.85;;
46757;SDS011;32509;47.750;-3.396;2023-04-09T10:42:18;4.22;;;3.08;;
46757;SDS011;32509;47.750;-3.396;2023-04-09T10:45:10;5.72;;;2.90;;
46757;SDS011;32509;47.750;-3.396;2023-04-09T10:47:40;4.10;;;3.67;;
46757;SDS011;32509;47.750;-3.396;2023-04-09T10:50:20;5.18;;;3.75;;
46757;SDS011;32509;47.750;-3.396;2023-04-09T10:52:47;4.35;;;3.92;;
46757;SDS011;32509;47.750;-3.396;2023-04-09T10:55:33;8.63;;;3.95;;
46757;SDS011;32509;47.750;-3.396;2023-04-09T10:58:01;8.15;;;4.05;;
46757;SDS011;32509;47.750;-3.396;2023-04-09T11:00:27;3.42;;;3.17;;
46757;SDS011;32509;47.750;-3.396;2023-04-09T11:03:37;4.00;;;3.40;;
46757;SDS011;32509;47.750;-3.396;2023-04-09T11:05:43;4.15;;;3.65;;
46757;SDS011;32509;47.750;-3.396;2023-04-09T11:08:13;3.47;;;3.25;;
46757;SDS011;32509;47.750;-3.396;2023-04-09T11:10:40;6.00;;;4.38;;
46757;SDS011;32509;47.750;-3.396;2023-04-09T11:13:10;7.20;;;4.65;;
46757;SDS011;32509;47.750;-3.396;2023-04-09T11:15:37;7.93;;;4.30;;
46757;SDS011;32509;47.750;-3.396;2023-04-09T11:18:03;6.15;;;4.45;;
46757;SDS011;32509;47.750;-3.396;2023-04-09T11:20:34;11.43;;;5.15;;
46757;SDS011;32509;47.750;-3.396;2023-04-09T11:23:00;3.95;;;3.47;;
46757;SDS011;32509;47.750;-3.396;2023-04-09T11:25:27;5.45;;;3.75;;
46757;SDS011;32509;47.750;-3.396;2023-04-09T11:27:53;6.28;;;4.47;;
46757;SDS011;32509;47.750;-3.396;2023-04-09T11:30:19;5.50;;;3.95;;
46757;SDS011;32509;47.750;-3.396;2023-04-09T11:32:46;5.50;;;4.05;;
46757;SDS011;32509;47.750;-3.396;2023-04-09T11:35:17;5.82;;;3.78;;
46757;SDS011;32509;47.750;-3.396;2023-04-09T11:37:43;7.40;;;3.78;;
46757;SDS011;32509;47.750;-3.396;2023-04-09T11:40:20;5.20;;;3.97;;
46757;SDS011;32509;47.750;-3.396;2023-04-09T11:42:50;3.72;;;3.40;;
46757;SDS011;32509;47.750;-3.396;2023-04-09T11:45:16;4.85;;;3.90;;
46757;SDS011;32509;47.750;-3.396;2023-04-09T11:47:43;5.40;;;3.75;;
46757;SDS011;32509;47.750;-3.396;2023-04-09T11:50:10;4.18;;;2.83;;
46757;SDS011;32509;47.750;-3.396;2023-04-09T11:52:36;6.35;;;3.15;;
46757;SDS011;32509;47.750;-3.396;2023-04-09T11:55:03;3.30;;;3.05;;
46757;SDS011;32509;47.750;-3.396;2023-04-09T12:00:12;4.97;;;3.47;;
46757;SDS011;32509;47.750;-3.396;2023-04-09T12:02:43;7.05;;;3.35;;
46757;SDS011;32509;47.750;-3.396;2023-04-09T12:05:25;7.38;;;4.18;;
46757;SDS011;32509;47.750;-3.396;2023-04-09T12:07:56;9.75;;;5.50;;
46757;SDS011;32509;47.750;-3.396;2023-04-09T12:10:25;5.20;;;4.07;;
46757;SDS011;32509;47.750;-3.396;2023-04-09T12:12:51;4.10;;;3.70;;
46757;SDS011;32509;47.750;-3.396;2023-04-09T12:15:18;7.63;;;4.43;;
46757;SDS011;32509;47.750;-3.396;2023-04-09T12:17:46;4.07;;;3.67;;
46757;SDS011;32509;47.750;-3.396;2023-04-09T12:20:13;6.53;;;3.35;;
46757;SDS011;32509;47.750;-3.396;2023-04-09T12:22:39;7.40;;;3.50;;
46757;SDS011;32509;47.750;-3.396;2023-04-09T12:25:06;6.50;;;3.92;;
46757;SDS011;32509;47.750;-3.396;2023-04-09T12:27:32;8.00;;;3.95;;
46757;SDS011;32509;47.750;-3.396;2023-04-09T12:29:58;4.32;;;3.80;;
46757;SDS011;32509;47.750;-3.396;2023-04-09T12:32:25;5.75;;;4.40;;
46757;SDS011;32509;47.750;-3.396;2023-04-09T12:34:52;6.05;;;4.18;;
46757;SDS011;32509;47.750;-3.396;2023-04-09T12:37:21;4.57;;;3.40;;
46757;SDS011;32509;47.750;-3.396;2023-04-09T12:39:47;8.13;;;3.92;;
46757;SDS011;32509;47.750;-3.396;2023-04-09T12:42:13;8.32;;;3.65;;
46757;SDS011;32509;47.750;-3.396;2023-04-09T12:44:39;5.07;;;3.72;;
46757;SDS011;32509;47.750;-3.396;2023-04-09T12:47:05;7.43;;;4.03;;
46757;SDS011;32509;47.750;-3.396;2023-04-09T12:49:32;6.65;;;3.75;;
46757;SDS011;32509;47.750;-3.396;2023-04-09T12:51:58;8.35;;;4.15;;
46757;SDS011;32509;47.750;-3.396;2023-04-09T12:54:24;6.30;;;3.80;;
46757;SDS011;32509;47.750;-3.396;2023-04-09T12:56:50;4.53;;;3.47;;
46757;SDS011;32509;47.750;-3.396;2023-04-09T12:59:17;6.72;;;3.75;;
46757;SDS011;32509;47.750;-3.396;2023-04-09T13:01:43;9.60;;;3.90;;
46757;SDS011;32509;47.750;-3.396;2023-04-09T13:04:09;4.20;;;3.40;;
46757;SDS011;32509;47.750;-3.396;2023-04-09T13:06:35;5.18;;;3.80;;
46757;SDS011;32509;47.750;-3.396;2023-04-09T13:09:01;5.55;;;4.00;;
46757;SDS011;32509;47.750;-3.396;2023-04-09T13:11:28;5.85;;;3.13;;
46757;SDS011;32509;47.750;-3.396;2023-04-09T13:13:54;3.80;;;3.13;;
46757;SDS011;32509;47.750;-3.396;2023-04-09T13:16:20;6.07;;;3.63;;
46757;SDS011;32509;47.750;-3.396;2023-04-09T13:18:46;8.85;;;4.25;;
46757;SDS011;32509;47.750;-3.396;2023-04-09T13:21:12;6.22;;;3.85;;
46757;SDS011;32509;47.750;-3.396;2023-04-09T13:23:42;7.75;;;3.50;;
46757;SDS011;32509;47.750;-3.396;2023-04-09T13:26:08;5.32;;;3.92;;
46757;SDS011;32509;47.750;-3.396;2023-04-09T13:28:34;4.60;;;3.15;;
46757;SDS011;32509;47.750;-3.396;2023-04-09T13:31:01;7.47;;;3.33;;
46757;SDS011;32509;47.750;-3.396;2023-04-09T13:33:27;6.88;;;4.25;;
46757;SDS011;32509;47.750;-3.396;2023-04-09T13:35:53;4.35;;;3.25;;
46757;SDS011;32509;47.750;-3.396;2023-04-09T13:38:19;5.30;;;3.42;;
46757;SDS011;32509;47.750;-3.396;2023-04-09T13:40:45;5.28;;;3.38;;
46757;SDS011;32509;47.750;-3.396;2023-04-09T13:43:11;4.40;;;2.97;;
46757;SDS011;32509;47.750;-3.396;2023-04-09T13:45:38;6.00;;;3.28;;
46757;SDS011;32509;47.750;-3.396;2023-04-09T13:48:05;7.43;;;3.80;;
46757;SDS011;32509;47.750;-3.396;2023-04-09T13:50:31;8.63;;;4.43;;
46757;SDS011;32509;47.750;-3.396;2023-04-09T13:52:57;9.05;;;3.70;;
46757;SDS011;32509;47.750;-3.396;2023-04-09T13:55:26;4.13;;;3.38;;
46757;SDS011;32509;47.750;-3.396;2023-04-09T13:57:52;8.43;;;4.07;;
46757;SDS011;32509;47.750;-3.396;2023-04-09T14:00:18;6.53;;;3.85;;
46757;SDS011;32509;47.750;-3.396;2023-04-09T14:02:45;5.25;;;3.63;;
46757;SDS011;32509;47.750;-3.396;2023-04-09T14:05:11;4.55;;;3.40;;
46757;SDS011;32509;47.750;-3.396;2023-04-09T14:07:37;5.43;;;3.65;;
46757;SDS011;32509;47.750;-3.396;2023-04-09T14:10:03;6.28;;;3.03;;
46757;SDS011;32509;47.750;-3.396;2023-04-09T14:12:29;4.45;;;3.08;;
46757;SDS011;32509;47.750;-3.396;2023-04-09T14:14:55;4.65;;;3.33;;
46757;SDS011;32509;47.750;-3.396;2023-04-09T14:17:21;4.05;;;3.65;;
46757;SDS011;32509;47.750;-3.396;2023-04-09T14:19:47;6.57;;;3.47;;
46757;SDS011;32509;47.750;-3.396;2023-04-09T14:22:13;5.80;;;2.92;;
46757;SDS011;32509;47.750;-3.396;2023-04-09T14:24:40;5.25;;;3.60;;
46757;SDS011;32509;47.750;-3.396;2023-04-09T14:27:06;7.72;;;3.33;;
46757;SDS011;32509;47.750;-3.396;2023-04-09T14:29:32;5.30;;;4.18;;
46757;SDS011;32509;47.750;-3.396;2023-04-09T14:31:58;8.43;;;4.60;;
46757;SDS011;32509;47.750;-3.396;2023-04-09T14:34:30;4.55;;;3.63;;
46757;SDS011;32509;47.750;-3.396;2023-04-09T14:36:56;6.82;;;3.50;;
46757;SDS011;32509;47.750;-3.396;2023-04-09T14:39:22;6.65;;;2.92;;
46757;SDS011;32509;47.750;-3.396;2023-04-09T14:41:48;3.50;;;2.90;;
46757;SDS011;32509;47.750;-3.396;2023-04-09T14:44:14;4.35;;;2.80;;
46757;SDS011;32509;47.750;-3.396;2023-04-09T14:46:41;6.97;;;3.85;;
46757;SDS011;32509;47.750;-3.396;2023-04-09T14:49:07;3.97;;;3.00;;